Time;durP1;ratioP1;P1;durP2;ratioP2;P2;SDS_P1;SDS_P2;PMS_P1;PMS_P2;Temp;Humidity;BMP_temperature;BMP_pressure;BME280_temperature;BME280_humidity;BME280_pressure;Samples;Min_cycle;Max_cycle;Signal;HPM_P1;HPM_P2
2023/05/19 00:01:44;;;;;;;7.43;4.00;;;;;;;;;;5072348;28;20423;-59
2023/05/19 00:04:11;;;;;;;8.13;4.05;;;;;;;;;;5057581;28;20097;-59
2023/05/19 00:06:37;;;;;;;8.98;3.83;;;;;;;;;;5068635;28;20037;-60
2023/05/19 00:09:08;;;;;;;9.23;4.30;;;;;;;;;;5072814;28;20029;-59
2023/05/19 00:11:35;;;;;;;10.20;4.30;;;;;;;;;;5070553;28;20094;-59
2023/05/19 00:14:03;;;;;;;9.90;4.40;;;;;;;;;;5057504;28;20431;-58
2023/05/19 00:16:29;;;;;;;10.15;4.10;;;;;;;;;;5069999;28;20033;-58
2023/05/19 00:19:00;;;;;;;9.65;4.50;;;;;;;;;;5059280;28;20424;-59
2023/05/19 00:21:26;;;;;;;7.88;4.15;;;;;;;;;;5054682;28;20044;-59
2023/05/19 00:23:52;;;;;;;11.20;4.47;;;;;;;;;;5062905;28;20495;-59
2023/05/19 00:26:17;;;;;;;9.52;4.43;;;;;;;;;;5051896;28;20086;-59
2023/05/19 00:28:42;;;;;;;10.00;4.20;;;;;;;;;;5053078;28;20087;-59
2023/05/19 00:31:08;;;;;;;10.40;4.13;;;;;;;;;;5066897;28;20032;-59
2023/05/19 00:33:34;;;;;;;8.70;4.60;;;;;;;;;;5070777;28;20477;-59
2023/05/19 00:36:02;;;;;;;8.95;4.30;;;;;;;;;;5071631;28;20460;-58
2023/05/19 00:38:29;;;;;;;6.93;4.18;;;;;;;;;;5063982;28;20990;-59
2023/05/19 00:40:55;;;;;;;8.40;4.43;;;;;;;;;;5071249;28;20098;-59
2023/05/19 00:43:20;;;;;;;8.75;4.32;;;;;;;;;;5069641;28;20032;-58
2023/05/19 00:45:46;;;;;;;8.93;4.50;;;;;;;;;;5070823;28;20472;-59
2023/05/19 00:48:11;;;;;;;11.82;4.60;;;;;;;;;;5070640;28;20028;-59
2023/05/19 00:50:37;;;;;;;9.07;4.25;;;;;;;;;;5068642;28;21260;-59
2023/05/19 00:53:02;;;;;;;10.88;4.82;;;;;;;;;;5069620;28;20029;-59
2023/05/19 00:55:30;;;;;;;9.93;4.45;;;;;;;;;;5052896;28;20389;-59
2023/05/19 00:57:56;;;;;;;10.55;4.40;;;;;;;;;;5071713;28;20037;-59
2023/05/19 01:00:22;;;;;;;7.45;4.45;;;;;;;;;;5066325;28;20094;-58
2023/05/19 01:02:49;;;;;;;10.85;4.72;;;;;;;;;;5061264;28;20376;-59
2023/05/19 01:05:15;;;;;;;11.50;4.75;;;;;;;;;;5070155;28;20499;-59
2023/05/19 01:07:41;;;;;;;9.85;4.65;;;;;;;;;;5067011;28;20179;-59
2023/05/19 01:10:07;;;;;;;10.57;4.55;;;;;;;;;;5071426;28;20029;-59
2023/05/19 01:12:33;;;;;;;13.05;4.95;;;;;;;;;;5071376;28;20032;-59
2023/05/19 01:14:59;;;;;;;11.82;4.78;;;;;;;;;;5070615;28;20043;-59
2023/05/19 01:17:36;;;;;;;10.05;4.60;;;;;;;;;;5069150;28;20052;-59
2023/05/19 01:20:18;;;;;;;8.20;4.47;;;;;;;;;;5066293;28;20033;-59
2023/05/19 01:22:53;;;;;;;8.80;4.65;;;;;;;;;;5062033;28;20437;-58
2023/05/19 01:25:56;;;;;;;8.70;4.85;;;;;;;;;;5070978;28;20039;-59
2023/05/19 01:28:52;;;;;;;14.48;4.80;;;;;;;;;;5058880;28;20098;-58
2023/05/19 01:31:22;;;;;;;12.75;5.22;;;;;;;;;;5069112;28;20093;-59
2023/05/19 01:33:48;;;;;;;10.75;4.93;;;;;;;;;;5069513;28;20376;-59
2023/05/19 01:36:14;;;;;;;9.80;4.93;;;;;;;;;;5051954;28;20029;-59
2023/05/19 01:38:42;;;;;;;12.52;5.30;;;;;;;;;;5062140;28;20036;-58
2023/05/19 01:41:08;;;;;;;9.52;5.05;;;;;;;;;;5066799;28;20070;-59
2023/05/19 01:43:34;;;;;;;9.25;4.80;;;;;;;;;;5066743;28;20040;-59
2023/05/19 01:46:01;;;;;;;13.00;5.10;;;;;;;;;;5070941;28;20089;-60
2023/05/19 01:48:28;;;;;;;13.27;5.15;;;;;;;;;;5059358;28;20043;-59
2023/05/19 01:50:56;;;;;;;15.85;5.35;;;;;;;;;;5062928;28;20416;-60
2023/05/19 01:53:22;;;;;;;12.77;5.50;;;;;;;;;;5068764;28;20052;-59
2023/05/19 01:55:50;;;;;;;8.40;5.28;;;;;;;;;;5071253;28;20029;-59
2023/05/19 01:58:21;;;;;;;11.32;5.60;;;;;;;;;;5070470;28;20039;-59
2023/05/19 02:01:02;;;;;;;9.63;5.35;;;;;;;;;;5070314;28;20032;-59
2023/05/19 02:03:37;;;;;;;10.70;5.45;;;;;;;;;;5063787;28;20052;-57
2023/05/19 02:06:29;;;;;;;11.98;5.80;;;;;;;;;;5059607;28;20102;-59
2023/05/19 02:09:06;;;;;;;8.02;4.65;;;;;;;;;;5062118;28;20480;-59
2023/05/19 02:11:59;;;;;;;13.10;5.70;;;;;;;;;;5061457;28;20085;-59
2023/05/19 02:14:31;;;;;;;11.90;5.75;;;;;;;;;;5069514;28;20048;-59
2023/05/19 02:16:57;;;;;;;8.82;5.18;;;;;;;;;;5069125;28;20427;-60
2023/05/19 02:19:25;;;;;;;12.23;6.05;;;;;;;;;;5068546;28;20044;-59
2023/05/19 02:21:51;;;;;;;12.57;5.47;;;;;;;;;;5069801;28;20103;-59
2023/05/19 02:24:16;;;;;;;11.27;5.82;;;;;;;;;;5071181;28;20120;-59
2023/05/19 02:26:42;;;;;;;13.07;5.57;;;;;;;;;;5070439;28;20028;-59
2023/05/19 02:29:08;;;;;;;10.98;5.35;;;;;;;;;;5066281;28;20029;-59
2023/05/19 02:31:33;;;;;;;11.73;5.85;;;;;;;;;;5065944;28;20028;-59
2023/05/19 02:33:58;;;;;;;10.75;5.78;;;;;;;;;;5075176;28;20123;-59
2023/05/19 02:36:25;;;;;;;10.30;5.68;;;;;;;;;;5073916;28;20039;-59
2023/05/19 02:38:50;;;;;;;13.07;5.63;;;;;;;;;;5075060;28;20056;-59
2023/05/19 02:41:16;;;;;;;10.27;5.50;;;;;;;;;;5075446;28;20388;-59
2023/05/19 02:43:42;;;;;;;10.50;5.72;;;;;;;;;;5066778;28;20481;-58
2023/05/19 02:46:08;;;;;;;16.45;6.13;;;;;;;;;;5071173;28;20059;-58
2023/05/19 02:48:33;;;;;;;13.48;6.18;;;;;;;;;;5072064;28;20104;-58
2023/05/19 02:50:58;;;;;;;11.20;5.60;;;;;;;;;;5059005;28;20025;-59
2023/05/19 02:53:24;;;;;;;13.27;5.90;;;;;;;;;;5070197;28;20064;-59
2023/05/19 02:55:50;;;;;;;19.35;6.20;;;;;;;;;;5073866;28;20484;-60
2023/05/19 02:58:15;;;;;;;12.10;5.32;;;;;;;;;;5073742;28;20032;-59
2023/05/19 03:00:43;;;;;;;9.65;5.55;;;;;;;;;;5073873;28;20088;-58
2023/05/19 03:03:09;;;;;;;12.85;5.72;;;;;;;;;;5070768;28;20035;-60
2023/05/19 03:05:35;;;;;;;10.68;5.65;;;;;;;;;;5071565;28;20116;-58
2023/05/19 03:08:00;;;;;;;12.02;6.13;;;;;;;;;;5072432;28;20536;-59
2023/05/19 03:10:25;;;;;;;12.40;5.65;;;;;;;;;;5072648;28;20460;-59
2023/05/19 03:12:51;;;;;;;9.43;6.00;;;;;;;;;;5072810;28;20029;-58
2023/05/19 03:15:17;;;;;;;10.52;5.90;;;;;;;;;;5073986;28;20362;-59
2023/05/19 03:17:42;;;;;;;12.35;5.85;;;;;;;;;;5073573;28;20104;-59
2023/05/19 03:20:10;;;;;;;10.13;6.22;;;;;;;;;;5057872;28;20112;-59
2023/05/19 03:22:35;;;;;;;11.43;6.03;;;;;;;;;;5072614;28;20028;-58
2023/05/19 03:25:02;;;;;;;11.55;6.00;;;;;;;;;;5073050;28;20482;-59
2023/05/19 03:27:28;;;;;;;11.48;6.25;;;;;;;;;;5059580;28;20025;-59
2023/05/19 03:29:53;;;;;;;12.88;6.38;;;;;;;;;;5072452;28;20442;-58
2023/05/19 03:32:19;;;;;;;13.68;6.30;;;;;;;;;;5072185;28;20115;-58
2023/05/19 03:34:44;;;;;;;14.65;6.63;;;;;;;;;;5071343;28;20034;-59
2023/05/19 03:37:09;;;;;;;13.73;5.90;;;;;;;;;;5070681;28;20476;-59
2023/05/19 03:39:35;;;;;;;12.27;6.10;;;;;;;;;;5060201;28;20049;-59
2023/05/19 03:42:01;;;;;;;12.20;6.75;;;;;;;;;;5053382;28;20394;-59
2023/05/19 03:44:26;;;;;;;11.65;6.20;;;;;;;;;;5067963;28;20165;-60
2023/05/19 03:46:52;;;;;;;13.52;6.47;;;;;;;;;;5072851;28;20085;-59
2023/05/19 03:49:17;;;;;;;12.80;6.35;;;;;;;;;;5070440;28;20115;-59
2023/05/19 03:51:43;;;;;;;12.27;6.53;;;;;;;;;;5071783;28;20166;-59
2023/05/19 03:54:08;;;;;;;13.30;6.72;;;;;;;;;;5072594;28;20039;-59
2023/05/19 03:56:38;;;;;;;15.82;7.05;;;;;;;;;;5070140;28;20029;-58
2023/05/19 03:59:05;;;;;;;13.63;6.80;;;;;;;;;;5072860;28;20036;-58
2023/05/19 04:01:32;;;;;;;14.77;6.70;;;;;;;;;;5070152;28;20092;-59
2023/05/19 04:03:57;;;;;;;12.77;6.32;;;;;;;;;;5065829;28;20445;-59
2023/05/19 04:06:22;;;;;;;9.27;6.40;;;;;;;;;;5070578;28;20111;-59
2023/05/19 04:08:48;;;;;;;12.57;6.88;;;;;;;;;;5071735;28;20055;-59
2023/05/19 04:11:13;;;;;;;13.75;7.13;;;;;;;;;;5071350;28;20032;-59
2023/05/19 04:13:39;;;;;;;13.45;6.47;;;;;;;;;;5071309;28;20043;-58
2023/05/19 04:16:05;;;;;;;14.63;6.68;;;;;;;;;;5073481;28;20020;-59
2023/05/19 04:18:30;;;;;;;13.52;6.40;;;;;;;;;;5070585;28;20029;-59
2023/05/19 04:20:56;;;;;;;12.57;6.40;;;;;;;;;;5073571;28;20078;-58
2023/05/19 04:23:21;;;;;;;12.93;6.78;;;;;;;;;;5072252;28;20028;-60
2023/05/19 04:25:50;;;;;;;14.32;7.90;;;;;;;;;;5066900;28;20620;-59
2023/05/19 04:28:16;;;;;;;13.98;6.70;;;;;;;;;;5071351;28;20029;-59
2023/05/19 04:30:42;;;;;;;15.05;6.95;;;;;;;;;;5071100;28;20025;-59
2023/05/19 04:33:10;;;;;;;12.40;6.63;;;;;;;;;;5065901;28;20028;-59
2023/05/19 04:35:36;;;;;;;11.05;6.63;;;;;;;;;;5069803;28;20036;-59
2023/05/19 04:38:02;;;;;;;14.35;6.63;;;;;;;;;;5072355;28;20032;-59
2023/05/19 04:40:29;;;;;;;13.85;6.65;;;;;;;;;;5070760;28;20519;-59
2023/05/19 04:42:56;;;;;;;14.95;6.72;;;;;;;;;;5063671;28;20116;-60
2023/05/19 04:45:22;;;;;;;12.88;6.55;;;;;;;;;;5071596;28;20033;-62
2023/05/19 04:47:47;;;;;;;13.32;7.00;;;;;;;;;;5069380;28;20024;-61
2023/05/19 04:50:13;;;;;;;16.60;6.65;;;;;;;;;;5071770;28;20032;-59
2023/05/19 04:52:41;;;;;;;16.60;7.00;;;;;;;;;;5068640;28;20070;-59
2023/05/19 04:55:07;;;;;;;13.48;6.70;;;;;;;;;;5070455;28;20075;-59
2023/05/19 04:57:32;;;;;;;15.13;7.20;;;;;;;;;;5070683;28;20043;-60
2023/05/19 05:00:01;;;;;;;12.00;6.07;;;;;;;;;;5070999;28;20033;-59
2023/05/19 05:02:26;;;;;;;12.27;6.45;;;;;;;;;;5070640;28;20078;-59
2023/05/19 05:04:53;;;;;;;12.95;6.55;;;;;;;;;;5070325;28;20044;-60
2023/05/19 05:07:20;;;;;;;15.95;6.20;;;;;;;;;;5062288;28;20132;-59
2023/05/19 05:09:47;;;;;;;12.25;5.80;;;;;;;;;;5066728;28;20028;-59
2023/05/19 05:12:13;;;;;;;14.43;6.35;;;;;;;;;;5072304;28;20032;-59
2023/05/19 05:14:39;;;;;;;11.75;6.28;;;;;;;;;;5071604;28;20035;-59
2023/05/19 05:17:04;;;;;;;14.23;6.15;;;;;;;;;;5072209;28;20020;-59
2023/05/19 05:19:31;;;;;;;12.02;6.40;;;;;;;;;;5070852;28;20032;-59
2023/05/19 05:21:57;;;;;;;11.52;6.70;;;;;;;;;;5065777;28;20115;-59
2023/05/19 05:24:22;;;;;;;15.00;6.60;;;;;;;;;;5072387;28;20116;-60
2023/05/19 05:26:48;;;;;;;12.27;5.88;;;;;;;;;;5070903;28;20115;-61
2023/05/19 05:29:13;;;;;;;16.52;6.30;;;;;;;;;;5071082;28;20032;-61
2023/05/19 05:31:39;;;;;;;20.77;6.35;;;;;;;;;;5069641;28;20123;-60
2023/05/19 05:34:05;;;;;;;10.90;6.30;;;;;;;;;;5064121;28;20037;-60
2023/05/19 05:36:31;;;;;;;11.75;6.18;;;;;;;;;;5069134;28;20093;-59
2023/05/19 05:38:58;;;;;;;9.95;5.90;;;;;;;;;;5071535;28;20041;-60
2023/05/19 05:41:23;;;;;;;11.00;6.00;;;;;;;;;;5064027;28;20489;-60
2023/05/19 05:43:49;;;;;;;11.75;6.72;;;;;;;;;;5058561;28;20081;-60
2023/05/19 05:46:14;;;;;;;11.73;5.88;;;;;;;;;;5071834;28;20064;-60
2023/05/19 05:48:41;;;;;;;9.93;6.07;;;;;;;;;;5068772;28;20107;-59
2023/05/19 05:51:07;;;;;;;12.00;6.30;;;;;;;;;;5070212;28;20064;-60
2023/05/19 05:53:39;;;;;;;11.38;6.10;;;;;;;;;;5071489;28;20075;-62
2023/05/19 05:56:05;;;;;;;13.35;6.20;;;;;;;;;;5072185;28;20052;-60
2023/05/19 05:58:33;;;;;;;12.38;5.68;;;;;;;;;;5070537;28;20064;-60
2023/05/19 06:01:00;;;;;;;12.68;6.30;;;;;;;;;;5062896;28;20037;-60
2023/05/19 06:03:26;;;;;;;10.18;5.63;;;;;;;;;;5051699;28;20029;-57
2023/05/19 06:05:51;;;;;;;13.05;5.60;;;;;;;;;;5048916;28;20029;-58
2023/05/19 06:08:16;;;;;;;12.38;5.90;;;;;;;;;;5066915;28;20058;-59
2023/05/19 06:10:42;;;;;;;12.48;5.72;;;;;;;;;;5069421;28;20087;-60
2023/05/19 06:13:07;;;;;;;10.55;6.00;;;;;;;;;;5060854;28;20054;-59
2023/05/19 06:15:33;;;;;;;9.45;5.20;;;;;;;;;;5069305;28;20105;-59
2023/05/19 06:17:58;;;;;;;8.45;5.57;;;;;;;;;;5071010;28;20032;-59
2023/05/19 06:20:24;;;;;;;10.60;5.95;;;;;;;;;;5074124;28;20036;-59
2023/05/19 06:22:49;;;;;;;11.65;5.78;;;;;;;;;;5089488;28;20141;-61
2023/05/19 06:25:15;;;;;;;11.90;5.93;;;;;;;;;;5069432;28;20036;-59
2023/05/19 06:27:41;;;;;;;10.32;5.53;;;;;;;;;;5067667;28;20028;-58
2023/05/19 06:30:07;;;;;;;11.27;5.90;;;;;;;;;;5070663;28;20028;-60
2023/05/19 06:32:33;;;;;;;11.40;5.60;;;;;;;;;;5070346;28;20099;-59
2023/05/19 06:34:58;;;;;;;10.07;5.72;;;;;;;;;;5070389;28;20112;-59
2023/05/19 06:37:23;;;;;;;9.15;5.40;;;;;;;;;;5067151;28;20025;-59
2023/05/19 06:39:52;;;;;;;14.40;5.45;;;;;;;;;;5063703;28;20083;-59
2023/05/19 06:42:21;;;;;;;10.98;5.65;;;;;;;;;;5070536;28;20041;-58
2023/05/19 06:44:50;;;;;;;10.50;5.88;;;;;;;;;;5070072;28;20086;-57
2023/05/19 06:47:16;;;;;;;10.70;5.55;;;;;;;;;;5071260;28;20507;-59
2023/05/19 06:49:43;;;;;;;10.30;5.20;;;;;;;;;;5070396;28;20028;-59
2023/05/19 06:52:09;;;;;;;13.02;5.03;;;;;;;;;;5066806;28;20029;-59
2023/05/19 06:54:34;;;;;;;10.55;5.20;;;;;;;;;;5057658;28;20033;-59
2023/05/19 06:57:00;;;;;;;11.50;4.75;;;;;;;;;;5050408;28;20029;-59
2023/05/19 06:59:25;;;;;;;9.85;4.68;;;;;;;;;;5070553;28;20033;-59
2023/05/19 07:01:50;;;;;;;12.32;4.97;;;;;;;;;;5068892;28;20029;-59
2023/05/19 07:04:16;;;;;;;8.60;4.65;;;;;;;;;;5070090;28;20036;-59
2023/05/19 07:06:41;;;;;;;10.70;5.00;;;;;;;;;;5063065;28;20037;-59
2023/05/19 07:09:07;;;;;;;11.90;4.90;;;;;;;;;;5063378;28;20043;-59
2023/05/19 07:11:33;;;;;;;11.23;4.95;;;;;;;;;;5070987;28;20048;-61
2023/05/19 07:13:58;;;;;;;8.70;4.20;;;;;;;;;;5069726;28;20032;-60
2023/05/19 07:16:24;;;;;;;9.90;4.60;;;;;;;;;;5068757;28;20498;-61
2023/05/19 07:18:49;;;;;;;7.95;4.20;;;;;;;;;;5070871;28;20477;-61
2023/05/19 07:21:15;;;;;;;10.88;4.40;;;;;;;;;;5074435;28;20471;-61
2023/05/19 07:23:40;;;;;;;13.70;4.82;;;;;;;;;;5072780;28;20028;-58
2023/05/19 07:26:06;;;;;;;9.52;4.75;;;;;;;;;;5074500;28;20121;-61
2023/05/19 07:28:33;;;;;;;12.90;4.28;;;;;;;;;;5072658;28;20032;-58
2023/05/19 07:30:58;;;;;;;9.70;4.63;;;;;;;;;;5070997;28;20020;-59
2023/05/19 07:33:25;;;;;;;11.27;4.88;;;;;;;;;;5074144;28;20033;-61
2023/05/19 07:35:51;;;;;;;8.85;4.35;;;;;;;;;;5070790;28;20068;-59
2023/05/19 07:38:16;;;;;;;10.10;4.35;;;;;;;;;;5056154;28;20436;-59
2023/05/19 07:40:42;;;;;;;7.13;4.28;;;;;;;;;;5072236;28;20072;-58
2023/05/19 07:43:07;;;;;;;11.55;4.57;;;;;;;;;;5073072;28;20098;-58
2023/05/19 07:45:32;;;;;;;7.85;3.95;;;;;;;;;;5073714;28;20033;-58
2023/05/19 07:47:58;;;;;;;13.35;3.90;;;;;;;;;;5072984;28;20236;-59
2023/05/19 07:50:24;;;;;;;8.65;4.18;;;;;;;;;;5073092;28;20187;-58
2023/05/19 07:52:49;;;;;;;11.65;3.78;;;;;;;;;;5071721;28;20490;-58
2023/05/19 07:55:16;;;;;;;7.05;3.45;;;;;;;;;;5064551;28;20025;-59
2023/05/19 07:57:41;;;;;;;8.93;3.63;;;;;;;;;;5065995;28;20036;-60
2023/05/19 08:00:08;;;;;;;7.30;3.53;;;;;;;;;;5070747;28;20032;-59
2023/05/19 08:02:34;;;;;;;12.57;4.13;;;;;;;;;;5054293;28;20037;-59
2023/05/19 08:04:59;;;;;;;10.52;3.78;;;;;;;;;;5052691;28;20047;-59
2023/05/19 08:07:25;;;;;;;9.18;3.83;;;;;;;;;;5053506;28;20029;-60
2023/05/19 08:09:50;;;;;;;11.27;3.88;;;;;;;;;;5053009;28;20070;-60
2023/05/19 08:12:15;;;;;;;5.95;3.35;;;;;;;;;;5053593;28;20078;-60
2023/05/19 08:14:41;;;;;;;6.60;3.22;;;;;;;;;;5052884;28;20388;-60
2023/05/19 08:17:06;;;;;;;10.55;3.50;;;;;;;;;;5062569;28;20032;-60
2023/05/19 08:19:32;;;;;;;7.03;3.15;;;;;;;;;;5073136;28;20082;-61
2023/05/19 08:21:59;;;;;;;11.45;3.47;;;;;;;;;;5072643;28;20428;-60
2023/05/19 08:24:28;;;;;;;8.93;2.85;;;;;;;;;;5073246;28;20098;-59
2023/05/19 08:26:53;;;;;;;7.40;2.97;;;;;;;;;;5072057;28;20056;-59
2023/05/19 08:29:19;;;;;;;7.07;2.97;;;;;;;;;;5072704;28;20060;-59
2023/05/19 08:31:44;;;;;;;9.18;2.90;;;;;;;;;;5072324;28;20442;-59
2023/05/19 08:34:10;;;;;;;7.53;3.22;;;;;;;;;;5072905;28;20107;-60
2023/05/19 08:36:36;;;;;;;10.20;2.65;;;;;;;;;;5072973;28;20060;-59
2023/05/19 08:39:01;;;;;;;6.97;3.10;;;;;;;;;;5072110;28;20102;-60
2023/05/19 08:41:26;;;;;;;7.13;2.78;;;;;;;;;;5073119;28;20150;-61
2023/05/19 08:43:52;;;;;;;7.45;2.70;;;;;;;;;;5070858;28;20123;-61
2023/05/19 08:46:20;;;;;;;6.78;2.70;;;;;;;;;;5071628;28;20070;-60
2023/05/19 08:48:46;;;;;;;6.32;2.60;;;;;;;;;;5072173;28;20031;-60
2023/05/19 08:51:34;;;;;;;7.15;2.60;;;;;;;;;;5072554;28;20024;-60
2023/05/19 08:54:13;;;;;;;9.85;2.55;;;;;;;;;;5071895;28;20029;-60
2023/05/19 08:56:39;;;;;;;7.00;2.60;;;;;;;;;;5073097;28;20366;-63
2023/05/19 08:59:06;;;;;;;5.45;2.30;;;;;;;;;;5070909;28;20675;-60
2023/05/19 09:01:32;;;;;;;9.13;2.60;;;;;;;;;;5071548;28;20093;-61
2023/05/19 09:03:58;;;;;;;9.07;2.40;;;;;;;;;;5071585;28;20499;-60
2023/05/19 09:06:24;;;;;;;5.60;2.20;;;;;;;;;;5072732;28;20025;-61
2023/05/19 09:08:49;;;;;;;8.05;2.65;;;;;;;;;;5071604;28;20024;-59
2023/05/19 09:11:15;;;;;;;10.52;2.80;;;;;;;;;;5072432;28;20059;-61
2023/05/19 09:13:40;;;;;;;7.50;2.50;;;;;;;;;;5072354;28;20458;-60
2023/05/19 09:16:06;;;;;;;8.85;2.30;;;;;;;;;;5071390;28;20126;-60
2023/05/19 09:18:32;;;;;;;7.65;2.40;;;;;;;;;;5072273;28;20104;-61
2023/05/19 09:21:03;;;;;;;5.95;2.50;;;;;;;;;;5071766;28;20040;-60
2023/05/19 09:23:32;;;;;;;6.05;2.13;;;;;;;;;;5067565;28;20054;-60
2023/05/19 09:26:02;;;;;;;5.85;2.10;;;;;;;;;;5070226;28;20036;-60
2023/05/19 09:28:30;;;;;;;6.90;2.50;;;;;;;;;;5071026;28;20032;-60
2023/05/19 09:31:00;;;;;;;7.20;2.30;;;;;;;;;;5070255;28;20261;-61
2023/05/19 09:33:27;;;;;;;7.07;2.47;;;;;;;;;;5070717;28;20483;-60
2023/05/19 09:35:55;;;;;;;8.20;2.58;;;;;;;;;;5069053;28;20048;-60
2023/05/19 09:38:22;;;;;;;6.35;2.08;;;;;;;;;;5069818;28;21581;-60
2023/05/19 09:40:48;;;;;;;6.57;2.42;;;;;;;;;;5069951;28;20098;-60
2023/05/19 09:43:15;;;;;;;5.03;2.13;;;;;;;;;;5059671;28;20037;-60
2023/05/19 09:45:40;;;;;;;7.40;2.30;;;;;;;;;;5071817;28;20033;-60
2023/05/19 09:48:06;;;;;;;6.68;2.40;;;;;;;;;;5069771;28;20032;-60
2023/05/19 09:50:32;;;;;;;11.35;2.40;;;;;;;;;;5070228;28;20033;-60
2023/05/19 09:52:58;;;;;;;8.32;2.67;;;;;;;;;;5070106;28;20032;-60
2023/05/19 09:55:27;;;;;;;6.65;2.38;;;;;;;;;;5069872;28;20463;-60
2023/05/19 09:57:55;;;;;;;5.22;2.33;;;;;;;;;;5068466;28;20487;-60
2023/05/19 10:00:22;;;;;;;5.88;2.35;;;;;;;;;;5070470;28;20469;-60
2023/05/19 10:02:49;;;;;;;7.93;2.70;;;;;;;;;;5071207;28;20040;-59
2023/05/19 10:05:19;;;;;;;8.68;2.50;;;;;;;;;;5070746;28;20035;-59
2023/05/19 10:07:47;;;;;;;8.93;2.53;;;;;;;;;;5069244;28;20028;-62
2023/05/19 10:10:14;;;;;;;6.38;2.30;;;;;;;;;;5067482;28;20048;-63
2023/05/19 10:12:40;;;;;;;6.97;2.55;;;;;;;;;;5068700;28;20439;-60
2023/05/19 10:15:10;;;;;;;5.47;2.58;;;;;;;;;;5069099;28;20190;-60
2023/05/19 10:17:37;;;;;;;7.50;2.30;;;;;;;;;;5069311;28;20024;-61
2023/05/19 10:20:05;;;;;;;10.40;2.67;;;;;;;;;;5070982;28;20032;-61
2023/05/19 10:22:31;;;;;;;7.25;2.28;;;;;;;;;;5071497;28;20040;-61
2023/05/19 10:24:56;;;;;;;8.00;2.30;;;;;;;;;;5069209;28;20033;-61
2023/05/19 10:27:23;;;;;;;5.32;2.20;;;;;;;;;;5066861;28;20037;-61
2023/05/19 10:29:51;;;;;;;5.88;2.40;;;;;;;;;;5067952;28;20028;-61
2023/05/19 10:32:22;;;;;;;5.93;2.20;;;;;;;;;;5071572;28;20040;-61
2023/05/19 10:34:59;;;;;;;5.82;2.28;;;;;;;;;;5067739;28;20499;-60
2023/05/19 10:37:39;;;;;;;7.10;2.85;;;;;;;;;;5065352;28;20141;-60
2023/05/19 10:40:42;;;;;;;6.72;2.70;;;;;;;;;;5059495;28;20190;-60
2023/05/19 10:43:15;;;;;;;6.13;2.25;;;;;;;;;;5066835;28;20075;-60
2023/05/19 10:45:47;;;;;;;6.82;2.20;;;;;;;;;;5069726;28;20051;-61
2023/05/19 10:48:16;;;;;;;5.28;2.20;;;;;;;;;;5066366;28;20067;-60
2023/05/19 10:50:45;;;;;;;6.30;2.10;;;;;;;;;;5069741;28;20059;-61
2023/05/19 10:53:19;;;;;;;7.97;2.38;;;;;;;;;;5056948;28;20025;-61
2023/05/19 10:55:52;;;;;;;6.00;2.47;;;;;;;;;;5060592;28;20032;-60
2023/05/19 10:58:38;;;;;;;7.65;2.38;;;;;;;;;;5072804;28;20430;-60
2023/05/19 11:01:28;;;;;;;4.22;2.10;;;;;;;;;;5070970;28;20068;-61
2023/05/19 11:03:55;;;;;;;;;;;;;;;;;;5071841;28;20033;-60
2023/05/19 11:06:29;;;;;;;7.70;2.40;;;;;;;;;;5067176;28;20003;-60
2023/05/19 11:09:00;;;;;;;5.30;2.00;;;;;;;;;;5067034;28;20071;-61
2023/05/19 11:11:41;;;;;;;6.22;1.90;;;;;;;;;;5054493;28;20036;-61
2023/05/19 11:14:10;;;;;;;4.60;1.75;;;;;;;;;;5060512;28;20036;-60
2023/05/19 11:16:36;;;;;;;5.75;2.20;;;;;;;;;;5071848;28;20043;-60
2023/05/19 11:19:01;;;;;;;5.55;2.10;;;;;;;;;;5071716;28;20155;-60
2023/05/19 11:21:51;;;;;;;5.95;2.10;;;;;;;;;;5073687;28;20040;-60
2023/05/19 11:24:33;;;;;;;4.88;2.13;;;;;;;;;;5064844;28;20453;-60
2023/05/19 11:26:59;;;;;;;7.78;1.88;;;;;;;;;;5061733;28;20098;-60
2023/05/19 11:29:25;;;;;;;4.50;2.10;;;;;;;;;;5071665;28;20032;-60
2023/05/19 11:31:50;;;;;;;6.13;2.10;;;;;;;;;;5071657;28;20456;-60
2023/05/19 11:34:17;;;;;;;6.60;2.40;;;;;;;;;;5071846;28;20074;-60
2023/05/19 11:36:44;;;;;;;6.00;2.67;;;;;;;;;;5070690;28;20064;-61
2023/05/19 11:39:10;;;;;;;6.72;2.17;;;;;;;;;;5071936;28;20090;-60
2023/05/19 11:41:39;;;;;;;7.03;2.20;;;;;;;;;;5072870;28;20025;-61
2023/05/19 11:44:09;;;;;;;6.35;2.13;;;;;;;;;;5067337;28;20119;-61
2023/05/19 11:46:35;;;;;;;5.72;2.20;;;;;;;;;;5072838;28;20456;-60
2023/05/19 11:49:01;;;;;;;5.43;2.15;;;;;;;;;;5073194;28;20040;-61
2023/05/19 11:51:26;;;;;;;5.30;2.30;;;;;;;;;;5073925;28;20035;-60
2023/05/19 11:53:53;;;;;;;5.22;2.08;;;;;;;;;;5073596;28;20078;-61
2023/05/19 11:56:18;;;;;;;6.95;2.20;;;;;;;;;;5072596;28;20040;-60
2023/05/19 11:58:44;;;;;;;5.57;2.08;;;;;;;;;;5073745;28;20385;-61
2023/05/19 12:01:10;;;;;;;5.53;2.00;;;;;;;;;;5072992;28;20032;-61
2023/05/19 12:03:35;;;;;;;4.70;2.13;;;;;;;;;;5073096;28;20487;-60
2023/05/19 12:06:02;;;;;;;9.23;2.38;;;;;;;;;;5072983;28;20032;-61
2023/05/19 12:08:28;;;;;;;5.78;2.70;;;;;;;;;;5073703;28;20112;-60
2023/05/19 12:10:55;;;;;;;6.88;2.50;;;;;;;;;;5071914;28;20154;-61
2023/05/19 12:13:21;;;;;;;5.05;2.20;;;;;;;;;;5073194;28;20070;-61
2023/05/19 12:15:49;;;;;;;7.35;2.00;;;;;;;;;;5071863;28;20024;-60
2023/05/19 12:18:14;;;;;;;13.60;2.50;;;;;;;;;;5072606;28;20025;-60
2023/05/19 12:20:40;;;;;;;4.43;2.17;;;;;;;;;;5073509;28;20039;-60
2023/05/19 12:23:06;;;;;;;6.50;2.40;;;;;;;;;;5068394;28;20037;-60
2023/05/19 12:25:31;;;;;;;5.38;2.20;;;;;;;;;;5070207;28;20031;-60
2023/05/19 12:27:59;;;;;;;6.05;2.17;;;;;;;;;;5071063;28;20040;-60
2023/05/19 12:30:28;;;;;;;5.47;2.10;;;;;;;;;;5070194;28;20040;-60
2023/05/19 12:32:56;;;;;;;6.32;2.35;;;;;;;;;;5062043;28;20037;-60
2023/05/19 12:35:25;;;;;;;4.95;2.40;;;;;;;;;;5071667;28;20457;-61
2023/05/19 12:37:50;;;;;;;6.03;2.00;;;;;;;;;;5066056;28;20047;-60
2023/05/19 12:40:16;;;;;;;3.60;1.88;;;;;;;;;;5069211;28;20057;-61
2023/05/19 12:42:43;;;;;;;5.75;2.20;;;;;;;;;;5071172;28;20066;-61
2023/05/19 12:45:09;;;;;;;5.68;2.30;;;;;;;;;;5070179;28;20033;-61
2023/05/19 12:47:35;;;;;;;7.28;2.50;;;;;;;;;;5072003;28;20434;-61
2023/05/19 12:50:07;;;;;;;5.68;2.03;;;;;;;;;;5069297;28;20457;-61
2023/05/19 12:52:41;;;;;;;6.55;1.98;;;;;;;;;;5058838;28;20369;-62
2023/05/19 12:55:09;;;;;;;5.00;2.20;;;;;;;;;;5071213;28;20041;-61
2023/05/19 12:57:47;;;;;;;5.47;2.25;;;;;;;;;;5068903;28;20516;-61
2023/05/19 13:00:24;;;;;;;9.73;2.40;;;;;;;;;;5071791;28;20040;-60
2023/05/19 13:02:55;;;;;;;6.82;2.20;;;;;;;;;;5071639;28;20358;-61
2023/05/19 13:05:21;;;;;;;5.45;2.30;;;;;;;;;;5066592;28;20047;-61
2023/05/19 13:08:26;;;;;;;51.33;3.88;;;;;;;;;;5067974;28;20024;-60
2023/05/19 13:10:51;;;;;;;4.68;2.25;;;;;;;;;;5035534;28;20106;-62
2023/05/19 13:13:18;;;;;;;5.75;2.10;;;;;;;;;;5063793;28;20605;-62
2023/05/19 13:15:47;;;;;;;6.07;2.17;;;;;;;;;;5070287;28;20495;-61
2023/05/19 13:18:13;;;;;;;5.70;2.00;;;;;;;;;;5070901;28;20025;-61
2023/05/19 13:20:39;;;;;;;5.47;2.15;;;;;;;;;;5067051;28;20036;-61
2023/05/19 13:23:05;;;;;;;4.18;1.98;;;;;;;;;;5065605;28;20021;-61
2023/05/19 13:25:33;;;;;;;7.00;2.33;;;;;;;;;;5070208;28;20223;-61
2023/05/19 13:28:00;;;;;;;4.82;2.10;;;;;;;;;;5067920;28;20032;-61
2023/05/19 13:30:26;;;;;;;5.43;2.08;;;;;;;;;;5070744;28;20036;-60
2023/05/19 13:32:52;;;;;;;3.72;1.88;;;;;;;;;;5057556;28;20033;-60
2023/05/19 13:35:17;;;;;;;5.07;1.95;;;;;;;;;;5065678;28;20036;-61
2023/05/19 13:37:43;;;;;;;7.20;2.20;;;;;;;;;;5069768;28;20154;-60
2023/05/19 13:40:09;;;;;;;4.90;2.08;;;;;;;;;;5069666;28;20048;-62
2023/05/19 13:42:34;;;;;;;4.85;2.00;;;;;;;;;;5070658;28;20086;-62
2023/05/19 13:45:00;;;;;;;3.40;1.90;;;;;;;;;;5069841;28;20375;-60
2023/05/19 13:47:26;;;;;;;4.57;1.92;;;;;;;;;;5070184;28;20044;-62
2023/05/19 13:49:52;;;;;;;5.00;1.98;;;;;;;;;;5065181;28;20031;-61
2023/05/19 13:52:20;;;;;;;6.88;2.20;;;;;;;;;;5069909;28;20473;-60
2023/05/19 13:54:46;;;;;;;4.25;2.10;;;;;;;;;;5069721;28;20028;-60
2023/05/19 13:57:12;;;;;;;3.63;1.80;;;;;;;;;;5065904;28;20689;-60
2023/05/19 13:59:38;;;;;;;4.82;2.13;;;;;;;;;;5070261;28;20029;-60
2023/05/19 14:02:04;;;;;;;5.60;2.20;;;;;;;;;;5069191;28;20507;-60
2023/05/19 14:04:29;;;;;;;7.38;2.03;;;;;;;;;;5071338;28;20044;-60
2023/05/19 14:06:55;;;;;;;5.78;1.98;;;;;;;;;;5069914;28;20024;-60
2023/05/19 14:09:21;;;;;;;4.22;2.00;;;;;;;;;;5055970;28;20157;-60
2023/05/19 14:11:47;;;;;;;4.10;1.83;;;;;;;;;;5070649;28;20420;-60
2023/05/19 14:14:12;;;;;;;4.90;1.90;;;;;;;;;;5069370;28;20056;-60
2023/05/19 14:16:39;;;;;;;3.63;1.90;;;;;;;;;;5071388;28;20060;-61
2023/05/19 14:19:04;;;;;;;3.92;2.00;;;;;;;;;;5068773;28;20535;-61
2023/05/19 14:21:31;;;;;;;4.90;1.90;;;;;;;;;;5069976;28;20112;-60
2023/05/19 14:23:56;;;;;;;4.78;2.00;;;;;;;;;;5069553;28;20032;-61
2023/05/19 14:26:22;;;;;;;7.15;1.95;;;;;;;;;;5070275;28;20072;-60
2023/05/19 14:28:47;;;;;;;3.88;1.80;;;;;;;;;;5073956;28;20044;-61
2023/05/19 14:31:13;;;;;;;5.07;2.05;;;;;;;;;;5072846;28;20043;-62
2023/05/19 14:33:39;;;;;;;5.82;2.20;;;;;;;;;;5074892;28;20230;-62
2023/05/19 14:36:06;;;;;;;5.65;2.10;;;;;;;;;;5074137;28;20024;-61
2023/05/19 14:38:32;;;;;;;5.68;2.28;;;;;;;;;;5075340;28;20029;-61
2023/05/19 14:40:57;;;;;;;7.38;1.92;;;;;;;;;;5073734;28;20071;-62